KLBE/LBE METAR and TAF weather

Enter ICAO airport designator
Station Type Date Time Source
KLBE METAR 2019/02/18 04:15 UTC NOAA

KLBE 180415Z AUTO 21003KT 1SM -DZ SCT001 OVC007 03/03 A2969 RMK AO2


Station Type Date Time Source
KLBE Decoded METAR 2019/02/18 04:15 UTC NOAA

Latrobe / Westmorland, PA, United States (KLBE) 40-17N 079-24W
Feb 17, 2019 - 11:15 PM EST / 2019.02.18 0415 UTC
Wind: from the SSW (210 degrees) at 3 MPH (3 KT):0
Visibility: 1 mile(s):0
Sky conditions: overcast
Weather: light drizzle
Temperature: 37 F (3 C)
Dew Point: 37 F (3 C)
Relative Humidity: 100%
Pressure (altimeter): 29.69 in. Hg (1005 hPa)
ob: KLBE 180415Z AUTO 21003KT 1SM -DZ SCT001 OVC007 03/03 A2969 RMK AO2
cycle: 4

Station Type Date Time Source
KLBE TAF 2019/02/18 03:09 UTC NOAA

TAF
AMD KLBE 180306Z 1803/1824 VRB03KT P6SM OVC013
FM180430 VRB04KT 3SM -DZ BR OVC008
FM181000 26010G18KT 6SM -SHSN OVC008
FM181600 29012G20KT P6SM -SHSN OVC015


Example: see airport list